Time;durP1;ratioP1;P1;durP2;ratioP2;P2;SDS_P1;SDS_P2;PMS_P1;PMS_P2;Temp;Humidity;BMP_temperature;BMP_pressure;BME280_temperature;BME280_humidity;BME280_pressure;Samples;Min_cycle;Max_cycle;Signal;HPM_P1;HPM_P2
2022/02/05 00:00:35;;;;;;;8.20;2.20;;;13.40;54.90;;;;;;5095284;28;20351;-74
2022/02/05 00:05:42;;;;;;;12.32;2.50;;;13.40;55.00;;;;;;5075184;28;20413;-74
2022/02/05 00:43:05;;;;;;;9.40;2.70;;;13.20;55.10;;;;;;5074650;28;19924;-74
2022/02/05 00:45:34;;;;;;;13.95;3.03;;;13.10;54.90;;;;;;5075345;28;20714;-74
2022/02/05 00:48:02;;;;;;;12.77;2.53;;;13.10;55.00;;;;;;5061333;28;20131;-74
2022/02/05 00:50:30;;;;;;;12.18;2.90;;;13.10;55.10;;;;;;5078061;28;20045;-75
2022/02/05 00:53:03;;;;;;;12.60;3.55;;;13.10;55.10;;;;;;5078281;28;20104;-74
2022/02/05 00:55:33;;;;;;;10.48;2.58;;;13.00;55.20;;;;;;5078175;28;20055;-74
2022/02/05 00:58:03;;;;;;;14.00;3.17;;;13.00;55.20;;;;;;5078258;28;20044;-74
2022/02/05 01:00:30;;;;;;;11.57;3.17;;;13.00;55.20;;;;;;5078407;28;20048;-74
2022/02/05 01:02:56;;;;;;;10.23;2.47;;;13.00;55.50;;;;;;5078782;28;20055;-74
2022/02/05 01:05:22;;;;;;;15.25;3.00;;;13.00;55.40;;;;;;5060593;28;20048;-74
2022/02/05 01:07:48;;;;;;;12.57;2.50;;;13.00;55.40;;;;;;5078238;28;20129;-74
2022/02/05 01:10:15;;;;;;;12.88;2.80;;;13.00;55.40;;;;;;5078591;28;20063;-74
2022/02/05 01:12:47;;;;;;;11.23;2.83;;;13.00;55.30;;;;;;5077961;28;20056;-73
2022/02/05 01:15:14;;;;;;;16.48;3.40;;;13.00;55.20;;;;;;5077548;28;20529;-74
2022/02/05 01:17:46;;;;;;;18.50;3.30;;;13.00;55.20;;;;;;5077604;28;20044;-74
2022/02/05 01:22:44;;;;;;;9.85;2.67;;;13.00;55.00;;;;;;5077504;28;20523;-73
2022/02/05 01:25:12;;;;;;;12.98;2.95;;;13.00;54.90;;;;;;5077592;28;20106;-74
2022/02/05 01:27:52;;;;;;;13.60;3.38;;;12.90;54.90;;;;;;5077369;28;20049;-74
2022/02/05 01:30:31;;;;;;;9.70;2.83;;;12.90;55.00;;;;;;5077290;28;20052;-73
2022/02/05 01:35:50;;;;;;;12.13;2.47;;;12.90;55.00;;;;;;5097463;28;20072;-74
2022/02/05 01:55:06;;;;;;;13.43;2.65;;;12.80;54.80;;;;;;5097265;28;20052;-73
2022/02/05 01:58:20;;;;;;;10.80;2.63;;;12.80;54.80;;;;;;5097223;28;20044;-74
2022/02/05 02:06:12;;;;;;;13.93;2.78;;;12.80;55.20;;;;;;5097715;28;20404;-75
2022/02/05 02:19:34;;;;;;;11.50;2.90;;;12.80;54.80;;;;;;5076669;28;20049;-74
2022/02/05 02:22:16;;;;;;;12.48;2.58;;;12.70;54.90;;;;;;5075955;28;20554;-74
2022/02/05 02:27:42;;;;;;;14.07;2.83;;;12.70;54.60;;;;;;5076598;28;20044;-74
2022/02/05 02:30:20;;;;;;;11.05;2.72;;;12.70;54.40;;;;;;5077556;28;20044;-73
2022/02/05 02:32:51;;;;;;;11.23;2.65;;;12.70;54.50;;;;;;5076727;28;20040;-74
2022/02/05 02:35:25;;;;;;;11.25;2.30;;;12.70;54.30;;;;;;5075778;28;20090;-74
2022/02/05 02:37:56;;;;;;;10.80;2.35;;;12.70;54.30;;;;;;5076677;28;20049;-73
2022/02/05 02:43:00;;;;;;;11.02;2.35;;;12.60;54.20;;;;;;5076331;28;20056;-74
2022/02/05 02:45:26;;;;;;;7.57;1.73;;;12.60;54.00;;;;;;5075958;28;20105;-74
2022/02/05 02:47:52;;;;;;;9.98;2.42;;;12.60;53.90;;;;;;5075847;28;20329;-74
2022/02/05 02:50:33;;;;;;;14.63;2.53;;;12.60;53.90;;;;;;5075865;28;20079;-73
2022/02/05 02:58:31;;;;;;;13.00;3.03;;;12.60;53.90;;;;;;5075629;28;20131;-73
2022/02/05 03:00:59;;;;;;;6.93;1.70;;;12.60;53.80;;;;;;5091280;28;20044;-73
2022/02/05 03:03:29;;;;;;;10.32;2.72;;;12.50;53.70;;;;;;5095964;28;20051;-74
2022/02/05 03:05:55;;;;;;;11.07;2.63;;;12.60;53.80;;;;;;5096374;28;20404;-73
2022/02/05 03:08:20;;;;;;;11.05;2.47;;;12.60;53.80;;;;;;5095380;28;20058;-74
2022/02/05 03:10:47;;;;;;;8.07;2.67;;;12.60;53.80;;;;;;5096284;28;20452;-74
2022/02/05 03:13:13;;;;;;;14.13;2.42;;;12.60;53.70;;;;;;5095833;28;20127;-74
2022/02/05 03:15:40;;;;;;;11.77;2.05;;;12.60;53.70;;;;;;5095676;28;20189;-73
2022/02/05 03:19:01;;;;;;;10.48;2.42;;;12.60;53.50;;;;;;5095744;28;20059;-73
2022/02/05 03:20:55;;;;;;;8.55;2.97;;;12.60;53.40;;;;;;5081944;28;20063;-73
2022/02/05 03:23:21;;;;;;;10.30;1.70;;;12.60;53.20;;;;;;5096260;28;20048;-73
2022/02/05 03:25:47;;;;;;;7.97;1.75;;;12.60;53.10;;;;;;5096131;28;20040;-74
2022/02/05 03:28:13;;;;;;;10.82;2.17;;;12.50;53.00;;;;;;5095590;28;20043;-74
2022/02/05 03:30:38;;;;;;;7.60;1.60;;;12.50;53.00;;;;;;5073640;28;20114;-74
2022/02/05 03:33:04;;;;;;;9.73;1.85;;;12.50;52.70;;;;;;5075229;28;20340;-74
2022/02/05 03:35:30;;;;;;;8.35;1.90;;;12.50;52.70;;;;;;5074530;28;20475;-73
2022/02/05 03:37:56;;;;;;;9.18;2.10;;;12.50;52.50;;;;;;5075215;28;20086;-73
2022/02/05 03:40:21;;;;;;;7.43;2.08;;;12.50;52.40;;;;;;5074956;28;20040;-74
2022/02/05 03:42:47;;;;;;;10.85;2.30;;;12.50;52.40;;;;;;5075248;28;20062;-74
2022/02/05 03:45:14;;;;;;;8.82;2.20;;;12.50;52.40;;;;;;5074894;28;20088;-74
2022/02/05 03:47:40;;;;;;;6.78;2.33;;;12.50;52.40;;;;;;5074793;28;20052;-74
2022/02/05 03:50:07;;;;;;;10.18;2.03;;;12.50;52.40;;;;;;5075000;28;20053;-73
2022/02/05 03:52:33;;;;;;;10.57;1.77;;;12.40;52.30;;;;;;5074971;28;20091;-74
2022/02/05 03:54:59;;;;;;;9.55;2.13;;;12.50;52.50;;;;;;5075089;28;20479;-74
2022/02/05 03:57:24;;;;;;;9.77;2.40;;;12.40;52.50;;;;;;5075164;28;20091;-73
2022/02/05 03:59:50;;;;;;;9.52;1.85;;;12.40;52.40;;;;;;5060251;28;20101;-73
2022/02/05 04:02:17;;;;;;;9.02;1.65;;;12.40;52.70;;;;;;5084932;28;20055;-73
2022/02/05 04:04:42;;;;;;;7.15;2.08;;;12.40;52.80;;;;;;5094968;28;20451;-74
2022/02/05 04:07:08;;;;;;;11.35;2.20;;;12.40;52.90;;;;;;5077372;28;20043;-74
2022/02/05 04:09:41;;;;;;;7.53;2.25;;;12.40;53.00;;;;;;5095023;28;20040;-73
2022/02/05 04:17:23;;;;;;;9.35;2.20;;;12.40;53.00;;;;;;5094860;28;20044;-73
2022/02/05 04:19:49;;;;;;;10.35;2.10;;;12.40;53.00;;;;;;5096740;28;20051;-73
2022/02/05 04:22:14;;;;;;;12.25;2.28;;;12.40;53.00;;;;;;5099163;28;20390;-75
2022/02/05 04:24:40;;;;;;;7.78;1.77;;;12.30;52.80;;;;;;5098906;28;20095;-75
2022/02/05 04:27:07;;;;;;;10.68;2.47;;;12.40;52.80;;;;;;5099125;28;20047;-74
2022/02/05 04:29:33;;;;;;;5.47;1.88;;;12.30;52.70;;;;;;5089702;28;20146;-74
2022/02/05 04:31:58;;;;;;;9.93;1.80;;;12.30;52.60;;;;;;5078542;28;20072;-74
2022/02/05 04:34:24;;;;;;;6.05;1.95;;;12.30;52.60;;;;;;5078382;28;20052;-74
2022/02/05 04:36:50;;;;;;;7.43;1.75;;;12.30;52.60;;;;;;5078538;28;20051;-73
2022/02/05 04:39:18;;;;;;;7.90;1.95;;;12.30;52.40;;;;;;5078179;28;20113;-74
2022/02/05 04:41:51;;;;;;;10.18;2.05;;;12.30;52.20;;;;;;5078910;28;20345;-74
2022/02/05 05:00:11;;;;;;;9.73;2.20;;;12.40;52.20;;;;;;5086780;28;20064;-74
2022/02/05 05:02:52;;;;;;;9.40;2.40;;;12.30;52.20;;;;;;5060445;28;20109;-73
2022/02/05 05:06:09;;;;;;;9.50;2.30;;;12.30;52.30;;;;;;5068714;28;20402;-74
2022/02/05 05:21:24;;;;;;;9.75;2.17;;;12.30;56.20;;;;;;5097765;28;20451;-73
2022/02/05 05:23:50;;;;;;;6.25;1.63;;;12.40;56.50;;;;;;5079687;28;20036;-73
2022/02/05 05:26:16;;;;;;;8.70;2.13;;;12.50;55.70;;;;;;5097778;28;20052;-72
2022/02/05 05:28:42;;;;;;;9.48;1.58;;;12.70;55.30;;;;;;5078308;28;20201;-71
2022/02/05 05:31:07;;;;;;;7.57;1.95;;;12.90;55.30;;;;;;5076809;28;20037;-72
2022/02/05 05:33:33;;;;;;;5.82;1.30;;;13.10;55.10;;;;;;5077527;28;20052;-71
2022/02/05 05:35:59;;;;;;;7.88;1.73;;;13.40;55.00;;;;;;5077226;28;20129;-72
2022/02/05 05:38:24;;;;;;;3.45;1.10;;;13.60;54.70;;;;;;5086859;28;20386;-73
2022/02/05 05:40:50;;;;;;;6.22;1.95;;;13.90;54.70;;;;;;5079729;28;20070;-72
2022/02/05 05:51:28;;;;;;;9.35;2.00;;;14.60;56.20;;;;;;5053966;28;20383;-72
2022/02/05 05:53:53;;;;;;;14.05;2.50;;;14.80;55.90;;;;;;5070295;28;20043;-79
2022/02/05 05:56:22;;;;;;;8.50;1.73;;;14.30;54.30;;;;;;5097205;28;20059;-74
2022/02/05 05:58:48;;;;;;;15.05;2.63;;;14.30;57.50;;;;;;5077568;28;20427;-76
2022/02/05 06:01:15;;;;;;;12.10;1.77;;;14.60;57.90;;;;;;5076612;28;20376;-79
2022/02/05 06:03:40;;;;;;;13.88;2.33;;;14.70;57.90;;;;;;5059284;28;20406;-76
2022/02/05 06:06:06;;;;;;;13.98;2.33;;;14.50;55.50;;;;;;5058845;28;20127;-75
2022/02/05 06:08:32;;;;;;;14.13;2.30;;;14.70;58.70;;;;;;5074195;28;20080;-81
2022/02/05 06:10:58;;;;;;;10.23;2.10;;;14.90;59.00;;;;;;5076599;28;20036;-74
2022/02/05 06:13:23;;;;;;;11.07;2.30;;;15.10;59.10;;;;;;5080017;28;20051;-77
2022/02/05 06:15:52;;;;;;;12.73;2.38;;;15.20;59.10;;;;;;5075354;28;20045;-77
2022/02/05 06:18:17;;;;;;;10.48;1.80;;;15.30;58.90;;;;;;5075191;28;20452;-77
2022/02/05 06:20:43;;;;;;;11.75;2.05;;;15.40;59.20;;;;;;5075949;28;20036;-78
2022/02/05 06:23:09;;;;;;;8.07;1.48;;;15.50;59.70;;;;;;5058431;28;20363;-77
2022/02/05 06:25:35;;;;;;;27.77;2.78;;;15.50;59.80;;;;;;5058444;28;20052;-77
2022/02/05 06:28:01;;;;;;;10.57;1.85;;;15.60;60.10;;;;;;5076856;28;20028;-74
2022/02/05 06:30:27;;;;;;;9.80;1.92;;;15.70;60.70;;;;;;5075948;28;20505;-77
2022/02/05 06:32:53;;;;;;;12.55;1.80;;;15.80;60.30;;;;;;5076088;28;20048;-77
2022/02/05 06:35:19;;;;;;;9.18;2.25;;;15.80;60.30;;;;;;5053932;28;20056;-78
2022/02/05 06:37:46;;;;;;;8.70;1.38;;;15.90;60.20;;;;;;5056037;28;20049;-78
2022/02/05 06:40:12;;;;;;;9.35;1.40;;;15.90;60.50;;;;;;5055763;28;20325;-77
2022/02/05 06:42:37;;;;;;;9.85;1.75;;;16.00;60.40;;;;;;5037282;28;20063;-76
2022/02/05 06:45:10;;;;;;;12.48;2.25;;;16.10;60.20;;;;;;5040685;28;21493;-78
2022/02/05 06:47:37;;;;;;;8.60;1.55;;;16.20;60.90;;;;;;5078423;28;20044;-79
2022/02/05 06:50:04;;;;;;;8.63;1.60;;;16.20;60.30;;;;;;5075637;28;20048;-77
2022/02/05 06:52:29;;;;;;;10.70;1.40;;;16.30;60.20;;;;;;5057889;28;20048;-75
2022/02/05 06:54:55;;;;;;;10.63;2.13;;;16.30;60.10;;;;;;5075375;28;20090;-76
2022/02/05 06:57:21;;;;;;;12.98;1.80;;;16.40;59.90;;;;;;5040976;28;20130;-73
2022/02/05 06:59:47;;;;;;;12.82;1.85;;;16.40;59.60;;;;;;5038146;28;20110;-76
2022/02/05 07:02:12;;;;;;;6.97;1.40;;;16.50;59.80;;;;;;5037812;28;20555;-76
2022/02/05 07:04:38;;;;;;;9.63;1.25;;;16.50;59.90;;;;;;5055673;28;20133;-74
2022/02/05 07:07:04;;;;;;;7.00;1.38;;;16.50;59.70;;;;;;5055648;28;20526;-75
2022/02/05 07:09:30;;;;;;;12.68;1.58;;;16.60;59.50;;;;;;5056264;28;20059;-74
2022/02/05 07:11:57;;;;;;;4.82;1.13;;;16.60;59.50;;;;;;5074897;28;20047;-75
2022/02/05 07:14:27;;;;;;;6.57;1.50;;;16.70;59.70;;;;;;5061666;28;20055;-77
2022/02/05 07:17:04;;;;;;;9.35;1.88;;;16.70;59.50;;;;;;5055106;28;20056;-77
2022/02/05 07:19:45;;;;;;;12.10;2.05;;;16.70;59.30;;;;;;5055469;28;20139;-77
2022/02/05 07:22:11;;;;;;;9.27;1.48;;;16.70;59.60;;;;;;5037338;28;20084;-73
2022/02/05 07:30:06;;;;;;;12.50;1.30;;;16.70;59.50;;;;;;5051979;28;20071;-79
2022/02/05 07:32:33;;;;;;;4.18;1.17;;;16.70;58.90;;;;;;5061146;28;20041;-80
2022/02/05 07:34:59;;;;;;;6.93;1.08;;;16.70;58.60;;;;;;5039584;28;20151;-82
2022/02/05 07:37:25;;;;;;;8.13;1.50;;;16.70;58.80;;;;;;5074837;28;20067;-79
2022/02/05 07:39:51;;;;;;;8.95;1.60;;;16.70;58.80;;;;;;5075377;28;20041;-79
2022/02/05 07:42:18;;;;;;;10.90;1.85;;;16.70;58.80;;;;;;5074861;28;20045;-78
2022/02/05 07:44:46;;;;;;;9.80;1.70;;;16.70;58.90;;;;;;5040442;28;20507;-78
2022/02/05 07:47:12;;;;;;;11.25;1.55;;;16.80;58.90;;;;;;5057085;28;20152;-76
2022/02/05 07:49:42;;;;;;;6.90;1.55;;;16.70;58.60;;;;;;5074865;28;20052;-78
2022/02/05 07:52:11;;;;;;;12.23;1.73;;;16.70;57.90;;;;;;5075412;28;20122;-77
2022/02/05 07:54:38;;;;;;;11.10;1.50;;;16.70;58.20;;;;;;5074422;28;20080;-76
2022/02/05 07:57:05;;;;;;;9.80;1.63;;;16.70;57.60;;;;;;5074600;28;20115;-76
2022/02/05 07:59:31;;;;;;;12.20;1.70;;;16.70;57.90;;;;;;5074850;28;20051;-78
2022/02/05 08:01:57;;;;;;;10.68;1.90;;;16.70;57.70;;;;;;5057025;28;20036;-76
2022/02/05 08:04:25;;;;;;;12.48;1.80;;;16.70;57.70;;;;;;5057853;28;20051;-80
2022/02/05 08:06:51;;;;;;;9.48;1.88;;;16.70;57.60;;;;;;5077157;28;20366;-80
2022/02/05 08:09:23;;;;;;;12.70;2.53;;;16.70;57.20;;;;;;5075449;28;20109;-79
2022/02/05 08:12:06;;;;;;;10.63;2.28;;;16.70;57.30;;;;;;5093308;28;20044;-81
2022/02/05 08:14:53;;;;;;;17.08;2.60;;;16.70;56.90;;;;;;5079921;28;20043;-80
2022/02/05 08:17:25;;;;;;;12.35;1.88;;;16.70;57.20;;;;;;5073128;28;20059;-76
2022/02/05 08:19:51;;;;;;;12.60;2.05;;;16.70;57.20;;;;;;5057751;28;20102;-80
2022/02/05 08:22:18;;;;;;;13.52;2.28;;;16.70;57.60;;;;;;5056723;28;20053;-83
2022/02/05 08:24:44;;;;;;;13.40;2.08;;;16.70;57.60;;;;;;5040665;28;20407;-75
2022/02/05 08:27:10;;;;;;;14.02;2.35;;;16.80;57.60;;;;;;5074765;28;20052;-76
2022/02/05 08:29:39;;;;;;;13.30;3.00;;;16.80;56.30;;;;;;5074862;28;20037;-77
2022/02/05 08:32:06;;;;;;;15.02;2.17;;;16.50;56.90;;;;;;5074653;28;20131;-77
2022/02/05 08:34:31;;;;;;;16.48;2.17;;;16.60;57.10;;;;;;5074542;28;20045;-78
2022/02/05 08:36:59;;;;;;;10.93;2.30;;;16.60;57.90;;;;;;5074629;28;20060;-80
2022/02/05 08:39:25;;;;;;;17.55;2.20;;;16.70;58.00;;;;;;5071200;28;20110;-76
2022/02/05 08:41:51;;;;;;;18.70;2.97;;;16.80;57.70;;;;;;5112329;28;20077;-76
2022/02/05 08:44:17;;;;;;;11.85;2.33;;;16.80;57.90;;;;;;5101108;28;20118;-77
2022/02/05 08:46:43;;;;;;;20.58;2.30;;;16.40;50.30;;;;;;5113636;28;20048;-75
2022/02/05 08:49:09;;;;;;;10.93;2.30;;;15.90;56.50;;;;;;5114426;28;20055;-76
2022/02/05 08:51:35;;;;;;;8.00;1.88;;;16.10;58.90;;;;;;5114796;28;20047;-76
2022/02/05 08:54:01;;;;;;;15.52;2.65;;;16.20;59.20;;;;;;5096710;28;20039;-75
2022/02/05 08:56:27;;;;;;;13.85;2.47;;;16.40;59.50;;;;;;5114690;28;20105;-79
2022/02/05 08:58:55;;;;;;;9.40;2.63;;;16.50;59.10;;;;;;5114496;28;20075;-80
2022/02/05 09:01:27;;;;;;;11.60;2.95;;;16.60;58.60;;;;;;5096972;28;20101;-79
2022/02/05 09:04:18;;;;;;;12.75;2.65;;;16.60;58.80;;;;;;5097083;28;20325;-82
2022/02/05 09:06:46;;;;;;;16.15;2.90;;;16.70;58.70;;;;;;5092739;28;20077;-78
2022/02/05 09:09:23;;;;;;;17.70;2.92;;;16.70;58.80;;;;;;5067737;28;20080;-80
2022/02/05 09:11:57;;;;;;;15.70;2.83;;;16.60;58.80;;;;;;5059893;28;20048;-79
2022/02/05 09:16:53;;;;;;;11.93;2.35;;;16.60;59.10;;;;;;5079723;28;20051;-80
2022/02/05 09:19:18;;;;;;;20.63;2.47;;;16.60;59.00;;;;;;5079628;28;20044;-81
2022/02/05 09:21:45;;;;;;;13.52;2.63;;;16.50;58.90;;;;;;5063804;28;20067;-80
2022/02/05 09:24:11;;;;;;;14.98;2.40;;;16.50;58.90;;;;;;5062430;28;20045;-77
2022/02/05 09:26:47;;;;;;;16.88;3.08;;;16.40;58.60;;;;;;5058091;28;20058;-79
2022/02/05 09:29:19;;;;;;;12.88;2.45;;;16.30;58.90;;;;;;5057799;28;20059;-79
2022/02/05 09:31:45;;;;;;;10.05;2.08;;;16.30;59.20;;;;;;5071567;28;20056;-77
2022/02/05 09:34:11;;;;;;;16.55;2.65;;;16.20;58.40;;;;;;5076310;28;20048;-78
2022/02/05 09:36:39;;;;;;;16.83;2.58;;;16.20;59.30;;;;;;5077273;28;20053;-79
2022/02/05 09:39:09;;;;;;;21.83;2.88;;;16.10;58.90;;;;;;5077189;28;20071;-80
2022/02/05 09:41:35;;;;;;;15.75;3.03;;;15.90;58.50;;;;;;5059585;28;20397;-79
2022/02/05 09:44:02;;;;;;;16.05;2.90;;;15.90;59.10;;;;;;5078101;28;20094;-81
2022/02/05 09:46:28;;;;;;;18.17;2.80;;;15.90;58.90;;;;;;5077094;28;20060;-78
2022/02/05 09:48:55;;;;;;;10.55;2.45;;;15.80;58.70;;;;;;5077334;28;20048;-78
2022/02/05 09:51:31;;;;;;;11.63;2.17;;;15.10;56.70;;;;;;5059470;28;20052;-78
2022/02/05 09:53:58;;;;;;;13.65;2.40;;;15.30;59.90;;;;;;5076971;28;20462;-78
2022/02/05 09:56:25;;;;;;;15.98;3.70;;;15.50;60.00;;;;;;5059658;28;20045;-78
2022/02/05 09:58:52;;;;;;;20.45;2.67;;;15.60;59.90;;;;;;5076754;28;20044;-78
2022/02/05 10:01:27;;;;;;;18.65;2.28;;;15.60;60.10;;;;;;5059292;28;20153;-80
2022/02/05 10:03:55;;;;;;;24.15;2.88;;;15.70;60.20;;;;;;5081267;28;20049;-79
2022/02/05 10:06:27;;;;;;;19.75;3.20;;;15.70;60.00;;;;;;5076948;28;20048;-78
2022/02/05 10:09:13;;;;;;;24.77;3.47;;;15.80;60.00;;;;;;5058900;28;20052;-79
2022/02/05 10:12:11;;;;;;;19.23;3.03;;;15.60;60.00;;;;;;5077121;28;20087;-83
2022/02/05 10:14:57;;;;;;;13.70;2.45;;;15.80;59.40;;;;;;5060128;28;20036;-84
2022/02/05 10:17:45;;;;;;;20.02;3.38;;;15.90;60.00;;;;;;5090522;28;20478;-78
2022/02/05 10:20:13;;;;;;;25.27;3.33;;;15.90;60.40;;;;;;5096524;28;20109;-77
2022/02/05 10:22:46;;;;;;;23.38;3.33;;;15.90;60.00;;;;;;5096538;28;20036;-77
2022/02/05 10:25:19;;;;;;;33.67;4.07;;;15.90;60.40;;;;;;5078370;28;20055;-78
2022/02/05 10:27:47;;;;;;;20.73;3.33;;;15.90;59.40;;;;;;5078842;28;20112;-79
2022/02/05 10:30:22;;;;;;;24.50;3.30;;;15.90;59.70;;;;;;5096565;28;20462;-77
2022/02/05 10:32:58;;;;;;;57.60;5.63;;;15.90;60.30;;;;;;5084543;28;20131;-80
2022/02/05 10:35:36;;;;;;;28.13;4.25;;;15.90;60.80;;;;;;5058481;28;20141;-79
2022/02/05 10:43:35;;;;;;;23.63;4.15;;;15.90;61.20;;;;;;5021368;28;20056;-78
2022/02/05 10:46:03;;;;;;;27.02;3.92;;;15.90;61.60;;;;;;5075022;28;20040;-79
2022/02/05 10:48:29;;;;;;;25.38;4.00;;;15.90;61.60;;;;;;5042032;28;20055;-79
2022/02/05 10:50:57;;;;;;;34.20;4.88;;;15.90;61.90;;;;;;5076361;28;20091;-78
2022/02/05 10:53:29;;;;;;;22.35;3.47;;;15.90;61.80;;;;;;5041934;28;20044;-78
2022/02/05 10:56:11;;;;;;;17.95;3.15;;;15.90;61.80;;;;;;5041630;28;20098;-76
2022/02/05 11:07:06;;;;;;;28.73;4.47;;;15.90;62.10;;;;;;5075533;28;20044;-74
2022/02/05 11:09:32;;;;;;;24.48;3.20;;;15.90;62.70;;;;;;5076310;28;20052;-75
2022/02/05 11:20:09;;;;;;;15.82;2.92;;;15.80;59.90;;;;;;5075476;28;20060;-75
2022/02/05 11:23:00;;;;;;;14.10;3.00;;;15.80;59.50;;;;;;5057349;28;20127;-77
2022/02/05 11:25:35;;;;;;;16.25;3.08;;;15.70;59.00;;;;;;5075897;28;20537;-74
2022/02/05 11:28:01;;;;;;;14.05;2.80;;;15.70;59.10;;;;;;5057867;28;20040;-74
2022/02/05 11:30:27;;;;;;;17.95;3.13;;;15.70;59.20;;;;;;5057299;28;20053;-75
2022/02/05 11:33:18;;;;;;;18.50;3.90;;;15.60;59.10;;;;;;5075305;28;20047;-75
2022/02/05 11:36:09;;;;;;;12.73;2.42;;;15.60;59.00;;;;;;5058166;28;20052;-75
2022/02/05 11:38:36;;;;;;;10.57;2.55;;;15.60;59.20;;;;;;5057473;28;20052;-74
2022/02/05 11:41:03;;;;;;;13.07;2.72;;;15.50;59.20;;;;;;5075288;28;20515;-74
2022/02/05 11:43:34;;;;;;;14.23;2.97;;;15.50;59.30;;;;;;5057278;28;20067;-74
2022/02/05 11:46:14;;;;;;;9.27;2.15;;;15.50;59.30;;;;;;5075154;28;20066;-74
2022/02/05 11:48:56;;;;;;;9.68;2.35;;;15.50;59.30;;;;;;5057404;28;20056;-74
2022/02/05 11:51:30;;;;;;;12.98;2.30;;;15.50;59.30;;;;;;5075389;28;20078;-74
2022/02/05 11:53:59;;;;;;;9.18;2.00;;;15.50;59.30;;;;;;5075408;28;20355;-76
2022/02/05 11:56:34;;;;;;;14.02;2.75;;;15.50;59.30;;;;;;5074875;28;20139;-75
2022/02/05 11:59:00;;;;;;;14.20;2.63;;;15.40;59.10;;;;;;5075144;28;20053;-74
2022/02/05 12:01:34;;;;;;;8.70;2.17;;;15.40;59.10;;;;;;5077494;28;20047;-74
2022/02/05 12:04:22;;;;;;;11.13;2.60;;;15.50;59.20;;;;;;5094819;28;20044;-75
2022/02/05 12:07:04;;;;;;;10.30;2.58;;;15.40;58.90;;;;;;5074954;28;20048;-75
2022/02/05 12:09:43;;;;;;;7.40;1.90;;;15.50;58.90;;;;;;5095050;28;20052;-76
2022/02/05 12:12:25;;;;;;;14.60;2.40;;;15.50;58.60;;;;;;5095361;28;20121;-74
2022/02/05 12:15:13;;;;;;;10.25;2.08;;;15.50;58.50;;;;;;5077264;28;20052;-73
2022/02/05 12:20:52;;;;;;;8.35;2.08;;;15.50;58.50;;;;;;5077257;28;20150;-74
2022/02/05 12:26:00;;;;;;;8.65;2.30;;;15.50;58.30;;;;;;5077234;28;20063;-75
2022/02/05 12:28:30;;;;;;;10.35;2.05;;;15.50;58.20;;;;;;5077440;28;20048;-74
2022/02/05 12:30:57;;;;;;;9.90;2.08;;;15.50;58.20;;;;;;5095168;28;20389;-74
2022/02/05 12:33:22;;;;;;;10.75;2.60;;;15.50;58.00;;;;;;5078941;28;20049;-74
2022/02/05 12:35:55;;;;;;;13.82;2.53;;;15.50;57.90;;;;;;5057321;28;20467;-74
2022/02/05 12:38:21;;;;;;;8.27;2.05;;;15.50;57.70;;;;;;5075125;28;20194;-77
2022/02/05 12:40:49;;;;;;;8.55;2.22;;;15.50;57.50;;;;;;5058243;28;20044;-76
2022/02/05 12:43:16;;;;;;;9.60;2.10;;;15.50;57.40;;;;;;5077423;28;20044;-75
2022/02/05 12:46:07;;;;;;;7.03;1.73;;;15.50;57.40;;;;;;5077676;28;20051;-74
2022/02/05 12:48:32;;;;;;;13.40;2.55;;;15.40;57.40;;;;;;5061087;28;20061;-74
2022/02/05 12:50:59;;;;;;;10.15;1.52;;;15.40;57.50;;;;;;5060697;28;20056;-73
2022/02/05 12:53:35;;;;;;;7.97;2.08;;;15.50;58.20;;;;;;5060297;28;20107;-77
2022/02/05 12:56:16;;;;;;;6.68;1.50;;;15.40;57.30;;;;;;5060509;28;20109;-74
2022/02/05 12:58:55;;;;;;;9.10;2.22;;;15.40;57.30;;;;;;5078095;28;20052;-75
2022/02/05 13:01:21;;;;;;;8.88;1.55;;;15.40;57.30;;;;;;5062973;28;20109;-74
2022/02/05 13:03:46;;;;;;;4.90;2.00;;;15.40;57.30;;;;;;5078327;28;20123;-74
2022/02/05 13:06:20;;;;;;;7.32;2.00;;;15.30;57.20;;;;;;5078212;28;20153;-77
2022/02/05 13:08:49;;;;;;;12.95;1.90;;;15.40;57.30;;;;;;5077750;28;20041;-73
2022/02/05 13:11:20;;;;;;;11.25;2.45;;;15.30;57.50;;;;;;5060240;28;20414;-74
2022/02/05 13:13:53;;;;;;;8.68;2.47;;;15.40;57.30;;;;;;5077962;28;20048;-74
2022/02/05 13:16:25;;;;;;;11.68;2.50;;;15.40;57.10;;;;;;5060522;28;20048;-75
2022/02/05 13:19:07;;;;;;;10.23;2.08;;;15.30;56.90;;;;;;5078446;28;20067;-74
2022/02/05 13:24:45;;;;;;;;;;;15.30;56.80;;;;;;5082426;28;20048;-73
2022/02/05 13:27:25;;;;;;;13.60;2.33;;;15.30;56.90;;;;;;5063663;28;19920;-73
2022/02/05 13:33:34;;;;;;;11.05;2.47;;;15.30;57.00;;;;;;5080984;28;20110;-77
2022/02/05 13:35:26;;;;;;;13.13;2.33;;;15.20;57.50;;;;;;5072124;28;20088;-76
2022/02/05 13:37:56;;;;;;;17.45;2.50;;;15.30;58.10;;;;;;5076633;28;20102;-75
2022/02/05 13:40:30;;;;;;;17.40;2.83;;;15.30;58.60;;;;;;5076138;28;20040;-78
2022/02/05 13:43:14;;;;;;;11.75;2.33;;;15.30;59.30;;;;;;5069019;28;20045;-76
2022/02/05 13:45:42;;;;;;;12.88;2.58;;;15.30;60.20;;;;;;5053425;28;20044;-78
2022/02/05 13:48:07;;;;;;;14.77;2.58;;;15.30;60.50;;;;;;5077269;28;20426;-76
2022/02/05 13:50:37;;;;;;;18.42;2.33;;;15.40;60.80;;;;;;5076155;28;20052;-77
2022/02/05 13:53:06;;;;;;;14.10;2.72;;;15.40;61.00;;;;;;5076164;28;20055;-76
2022/02/05 13:55:40;;;;;;;11.52;2.15;;;15.50;60.90;;;;;;5074893;28;20375;-76
2022/02/05 13:58:16;;;;;;;10.07;1.55;;;15.70;60.80;;;;;;5059325;28;20116;-78
2022/02/05 14:00:54;;;;;;;15.50;2.10;;;15.20;59.50;;;;;;5056492;28;20045;-77
2022/02/05 14:03:30;;;;;;;14.13;1.70;;;15.50;61.10;;;;;;5063395;28;20044;-79
2022/02/05 14:06:10;;;;;;;11.45;1.75;;;15.60;59.60;;;;;;5066975;28;20048;-78
2022/02/05 14:08:39;;;;;;;16.17;2.17;;;15.70;60.60;;;;;;5050958;28;20056;-76
2022/02/05 14:11:08;;;;;;;14.90;1.95;;;15.80;60.50;;;;;;5039107;28;20395;-76
2022/02/05 14:13:35;;;;;;;12.88;2.10;;;15.90;60.00;;;;;;5059130;28;20090;-79
2022/02/05 14:16:02;;;;;;;10.18;1.55;;;16.00;60.40;;;;;;5042727;28;20052;-73
2022/02/05 14:18:45;;;;;;;14.82;2.03;;;16.00;60.20;;;;;;5073568;28;20052;-75
2022/02/05 14:21:10;;;;;;;10.32;1.98;;;16.10;60.70;;;;;;5053252;28;20036;-76
2022/02/05 14:23:52;;;;;;;7.25;2.00;;;16.20;58.60;;;;;;5059134;28;20059;-78
2022/02/05 14:26:40;;;;;;;9.77;1.95;;;16.20;55.70;;;;;;5022229;28;20114;-73
2022/02/05 14:29:07;;;;;;;8.73;1.90;;;16.30;55.60;;;;;;5067047;28;20143;-71
2022/02/05 14:31:41;;;;;;;7.47;1.67;;;16.30;56.00;;;;;;5067415;28;20041;-74
2022/02/05 14:34:21;;;;;;;10.48;1.83;;;16.40;56.20;;;;;;5055853;28;20049;-74
2022/02/05 14:42:07;;;;;;;6.82;1.63;;;16.60;56.30;;;;;;5072801;28;20056;-73
2022/02/05 14:44:33;;;;;;;4.93;1.33;;;16.50;55.30;;;;;;5094491;28;20090;-74
2022/02/05 14:47:00;;;;;;;10.93;1.83;;;15.50;57.40;;;;;;5094528;28;20135;-73
2022/02/05 14:49:26;;;;;;;8.25;1.73;;;15.80;59.10;;;;;;5075962;28;20135;-72
2022/02/05 14:51:52;;;;;;;9.10;2.00;;;15.90;58.80;;;;;;5083913;28;20050;-74
2022/02/05 14:54:19;;;;;;;8.55;2.28;;;16.00;58.50;;;;;;5075902;28;20044;-71
2022/02/05 14:56:48;;;;;;;7.93;1.52;;;16.10;58.70;;;;;;5075266;28;20044;-75
2022/02/05 14:59:14;;;;;;;8.82;1.65;;;16.20;58.50;;;;;;5075512;28;20124;-73
2022/02/05 15:01:39;;;;;;;6.60;1.80;;;16.20;58.50;;;;;;5075700;28;20469;-73
2022/02/05 15:04:05;;;;;;;8.23;1.55;;;16.20;59.20;;;;;;5075287;28;20458;-74
2022/02/05 15:06:34;;;;;;;13.00;2.10;;;16.20;58.70;;;;;;5075863;28;20055;-75
2022/02/05 15:09:03;;;;;;;13.18;2.00;;;16.30;59.60;;;;;;5075624;28;20041;-73
2022/02/05 15:11:29;;;;;;;9.65;1.65;;;16.20;60.70;;;;;;5075335;28;20352;-77
2022/02/05 15:13:57;;;;;;;10.75;2.22;;;16.30;61.40;;;;;;5075450;28;20080;-79
2022/02/05 15:16:24;;;;;;;11.52;2.35;;;16.20;62.60;;;;;;5041463;28;20131;-79
2022/02/05 15:18:55;;;;;;;21.85;10.23;;;16.30;63.90;;;;;;5075202;28;20032;-75
2022/02/05 15:21:25;;;;;;;24.17;9.90;;;16.20;65.60;;;;;;5057387;28;20109;-77
2022/02/05 15:23:51;;;;;;;24.70;10.52;;;16.30;68.50;;;;;;5057496;28;20060;-76
2022/02/05 15:26:19;;;;;;;19.05;7.05;;;16.30;69.90;;;;;;5075383;28;20036;-74
2022/02/05 15:28:46;;;;;;;16.95;6.50;;;16.30;69.30;;;;;;5075351;28;20476;-80
2022/02/05 15:31:12;;;;;;;14.75;5.88;;;16.30;68.70;;;;;;5057980;28;20522;-78
2022/02/05 15:33:46;;;;;;;12.10;4.55;;;16.30;68.80;;;;;;5075025;28;20052;-81
2022/02/05 15:36:16;;;;;;;15.35;5.50;;;16.30;69.30;;;;;;5074874;28;20056;-76
2022/02/05 15:38:53;;;;;;;11.27;5.25;;;16.30;70.70;;;;;;5075274;28;20048;-75
2022/02/05 15:44:03;;;;;;;11.50;4.38;;;16.30;70.40;;;;;;5075288;28;20049;-80
2022/02/05 15:46:29;;;;;;;10.07;3.30;;;16.30;69.70;;;;;;5063724;28;20123;-75
2022/02/05 15:48:54;;;;;;;10.80;2.67;;;16.30;67.60;;;;;;5073941;28;20080;-71
2022/02/05 15:51:22;;;;;;;8.88;2.55;;;16.30;64.30;;;;;;5057321;28;20052;-75
2022/02/05 15:53:58;;;;;;;12.10;3.03;;;16.20;62.10;;;;;;5075102;28;20049;-73